Terminal Aerodrome Forecast
Issued by NWS

Home | Current Version | Previous Version | Text Only | Print | Product List | Glossary On
Versions: 1 2 3 4 5 6 7 8 9 10 11 12 13 14
000
FTUS41 KBTV 181742
TAFPBG
TAF
KPBG 181742Z 1818/1918 16011KT P6SM OVC070
     FM182200 17010KT P6SM VCSH OVC040
     FM190100 16009KT 6SM -RA BR OVC030
     FM190500 16007G19KT 4SM -RA BR OVC008
     FM191100 17009KT 5SM -SHRA BR OVC010
     FM191500 28018G27KT P6SM VCSH OVC040=

USA.gov is the U.S. government's official web portal to all federal, state and local government web resources and services.